sensor_id;sensor_type;location;lat;lon;timestamp;P1;durP1;ratioP1;P2;durP2;ratioP2
60060;SDS011;45933;51.336;12.612;2023-10-08T00:01:28;8.35;;;4.13;;
60060;SDS011;45933;51.336;12.612;2023-10-08T00:03:54;9.00;;;4.30;;
60060;SDS011;45933;51.336;12.612;2023-10-08T00:06:23;5.80;;;3.92;;
60060;SDS011;45933;51.336;12.612;2023-10-08T00:08:49;7.82;;;3.60;;
60060;SDS011;45933;51.336;12.612;2023-10-08T00:11:15;8.85;;;4.22;;
60060;SDS011;45933;51.336;12.612;2023-10-08T00:13:41;8.25;;;4.20;;
60060;SDS011;45933;51.336;12.612;2023-10-08T00:16:08;8.27;;;4.20;;
60060;SDS011;45933;51.336;12.612;2023-10-08T00:18:41;6.65;;;3.97;;
60060;SDS011;45933;51.336;12.612;2023-10-08T00:21:14;8.45;;;4.22;;
60060;SDS011;45933;51.336;12.612;2023-10-08T00:23:52;7.97;;;4.47;;
60060;SDS011;45933;51.336;12.612;2023-10-08T00:26:24;5.82;;;4.03;;
60060;SDS011;45933;51.336;12.612;2023-10-08T00:28:55;7.82;;;3.85;;
60060;SDS011;45933;51.336;12.612;2023-10-08T00:31:40;9.57;;;3.83;;
60060;SDS011;45933;51.336;12.612;2023-10-08T00:34:09;6.82;;;4.20;;
60060;SDS011;45933;51.336;12.612;2023-10-08T00:36:40;10.90;;;5.25;;
60060;SDS011;45933;51.336;12.612;2023-10-08T00:39:07;8.82;;;4.10;;
60060;SDS011;45933;51.336;12.612;2023-10-08T00:41:38;7.82;;;4.03;;
60060;SDS011;45933;51.336;12.612;2023-10-08T00:44:07;8.93;;;4.57;;
60060;SDS011;45933;51.336;12.612;2023-10-08T00:46:35;9.07;;;4.35;;
60060;SDS011;45933;51.336;12.612;2023-10-08T00:49:07;7.97;;;4.70;;
60060;SDS011;45933;51.336;12.612;2023-10-08T00:51:53;6.38;;;4.03;;
60060;SDS011;45933;51.336;12.612;2023-10-08T00:54:32;8.10;;;4.22;;
60060;SDS011;45933;51.336;12.612;2023-10-08T00:56:58;11.40;;;4.63;;
60060;SDS011;45933;51.336;12.612;2023-10-08T00:59:29;7.75;;;4.50;;
60060;SDS011;45933;51.336;12.612;2023-10-08T01:02:03;7.15;;;4.43;;
60060;SDS011;45933;51.336;12.612;2023-10-08T01:04:32;7.32;;;4.18;;
60060;SDS011;45933;51.336;12.612;2023-10-08T01:07:02;8.38;;;4.78;;
60060;SDS011;45933;51.336;12.612;2023-10-08T01:09:38;7.25;;;4.15;;
60060;SDS011;45933;51.336;12.612;2023-10-08T01:12:14;10.95;;;4.43;;
60060;SDS011;45933;51.336;12.612;2023-10-08T01:14:43;9.35;;;4.43;;
60060;SDS011;45933;51.336;12.612;2023-10-08T01:17:10;7.78;;;4.05;;
60060;SDS011;45933;51.336;12.612;2023-10-08T01:19:41;7.40;;;4.35;;
60060;SDS011;45933;51.336;12.612;2023-10-08T01:22:16;10.50;;;4.88;;
60060;SDS011;45933;51.336;12.612;2023-10-08T01:24:43;12.10;;;5.00;;
60060;SDS011;45933;51.336;12.612;2023-10-08T01:27:08;10.23;;;4.68;;
60060;SDS011;45933;51.336;12.612;2023-10-08T01:29:37;10.65;;;5.03;;
60060;SDS011;45933;51.336;12.612;2023-10-08T01:32:03;7.63;;;4.07;;
60060;SDS011;45933;51.336;12.612;2023-10-08T01:34:35;10.57;;;4.45;;
60060;SDS011;45933;51.336;12.612;2023-10-08T01:37:01;8.60;;;3.97;;
60060;SDS011;45933;51.336;12.612;2023-10-08T01:39:33;6.75;;;3.10;;
60060;SDS011;45933;51.336;12.612;2023-10-08T01:42:00;5.20;;;2.85;;
60060;SDS011;45933;51.336;12.612;2023-10-08T01:44:25;3.13;;;2.65;;
60060;SDS011;45933;51.336;12.612;2023-10-08T01:46:50;2.63;;;1.73;;
60060;SDS011;45933;51.336;12.612;2023-10-08T01:49:15;0.68;;;0.63;;
60060;SDS011;45933;51.336;12.612;2023-10-08T01:51:46;0.38;;;0.38;;
60060;SDS011;45933;51.336;12.612;2023-10-08T01:54:12;0.30;;;0.30;;
60060;SDS011;45933;51.336;12.612;2023-10-08T01:56:40;0.10;;;0.10;;
60060;SDS011;45933;51.336;12.612;2023-10-08T01:59:09;0.20;;;0.20;;
60060;SDS011;45933;51.336;12.612;2023-10-08T02:01:36;0.10;;;0.10;;
60060;SDS011;45933;51.336;12.612;2023-10-08T02:04:03;0.10;;;0.10;;
60060;SDS011;45933;51.336;12.612;2023-10-08T02:06:29;0.10;;;0.10;;
60060;SDS011;45933;51.336;12.612;2023-10-08T02:08:56;0.00;;;0.00;;
60060;SDS011;45933;51.336;12.612;2023-10-08T02:11:21;0.10;;;0.10;;
60060;SDS011;45933;51.336;12.612;2023-10-08T02:13:46;0.00;;;0.00;;
60060;SDS011;45933;51.336;12.612;2023-10-08T02:16:14;0.10;;;0.10;;
60060;SDS011;45933;51.336;12.612;2023-10-08T02:18:43;0.10;;;0.10;;
60060;SDS011;45933;51.336;12.612;2023-10-08T02:21:09;0.00;;;0.00;;
60060;SDS011;45933;51.336;12.612;2023-10-08T02:23:35;0.35;;;0.10;;
60060;SDS011;45933;51.336;12.612;2023-10-08T02:26:01;0.00;;;0.00;;
60060;SDS011;45933;51.336;12.612;2023-10-08T02:28:27;0.10;;;0.10;;
60060;SDS011;45933;51.336;12.612;2023-10-08T02:30:53;0.90;;;0.10;;
60060;SDS011;45933;51.336;12.612;2023-10-08T02:33:18;1.27;;;0.10;;
60060;SDS011;45933;51.336;12.612;2023-10-08T02:35:45;0.00;;;0.00;;
60060;SDS011;45933;51.336;12.612;2023-10-08T02:38:12;0.10;;;0.10;;
60060;SDS011;45933;51.336;12.612;2023-10-08T02:40:41;0.08;;;0.08;;
60060;SDS011;45933;51.336;12.612;2023-10-08T02:43:11;0.20;;;0.10;;
60060;SDS011;45933;51.336;12.612;2023-10-08T02:45:39;0.00;;;0.00;;
60060;SDS011;45933;51.336;12.612;2023-10-08T02:48:06;0.20;;;0.10;;
60060;SDS011;45933;51.336;12.612;2023-10-08T02:50:38;0.00;;;0.00;;
60060;SDS011;45933;51.336;12.612;2023-10-08T02:53:05;0.30;;;0.15;;
60060;SDS011;45933;51.336;12.612;2023-10-08T02:55:35;0.00;;;0.00;;
60060;SDS011;45933;51.336;12.612;2023-10-08T02:58:01;0.17;;;0.10;;
60060;SDS011;45933;51.336;12.612;2023-10-08T03:00:27;0.70;;;0.10;;
60060;SDS011;45933;51.336;12.612;2023-10-08T03:02:55;0.08;;;0.08;;
60060;SDS011;45933;51.336;12.612;2023-10-08T03:05:22;0.10;;;0.10;;
60060;SDS011;45933;51.336;12.612;2023-10-08T03:07:47;0.00;;;0.00;;
60060;SDS011;45933;51.336;12.612;2023-10-08T03:10:16;0.00;;;0.00;;
60060;SDS011;45933;51.336;12.612;2023-10-08T03:12:45;0.10;;;0.10;;
60060;SDS011;45933;51.336;12.612;2023-10-08T03:15:14;0.00;;;0.00;;
60060;SDS011;45933;51.336;12.612;2023-10-08T03:18:03;0.10;;;0.10;;
60060;SDS011;45933;51.336;12.612;2023-10-08T03:20:41;0.10;;;0.10;;
60060;SDS011;45933;51.336;12.612;2023-10-08T03:23:08;0.10;;;0.10;;
60060;SDS011;45933;51.336;12.612;2023-10-08T03:25:47;0.00;;;0.00;;
60060;SDS011;45933;51.336;12.612;2023-10-08T03:28:13;0.20;;;0.10;;
60060;SDS011;45933;51.336;12.612;2023-10-08T03:30:41;0.10;;;0.10;;
60060;SDS011;45933;51.336;12.612;2023-10-08T03:33:18;0.10;;;0.10;;
60060;SDS011;45933;51.336;12.612;2023-10-08T03:35:48;1.65;;;0.10;;
60060;SDS011;45933;51.336;12.612;2023-10-08T03:38:17;0.10;;;0.10;;
60060;SDS011;45933;51.336;12.612;2023-10-08T03:40:53;0.10;;;0.10;;
60060;SDS011;45933;51.336;12.612;2023-10-08T03:43:23;0.10;;;0.10;;
60060;SDS011;45933;51.336;12.612;2023-10-08T03:45:59;0.10;;;0.10;;
60060;SDS011;45933;51.336;12.612;2023-10-08T03:48:25;0.08;;;0.08;;
60060;SDS011;45933;51.336;12.612;2023-10-08T03:50:50;0.45;;;0.22;;
60060;SDS011;45933;51.336;12.612;2023-10-08T03:53:31;0.60;;;0.40;;
60060;SDS011;45933;51.336;12.612;2023-10-08T03:55:59;0.30;;;0.30;;
60060;SDS011;45933;51.336;12.612;2023-10-08T03:58:30;2.10;;;0.40;;
60060;SDS011;45933;51.336;12.612;2023-10-08T04:00:59;1.30;;;0.30;;
60060;SDS011;45933;51.336;12.612;2023-10-08T04:03:36;1.48;;;0.40;;
60060;SDS011;45933;51.336;12.612;2023-10-08T04:06:17;0.98;;;0.50;;
60060;SDS011;45933;51.336;12.612;2023-10-08T04:08:48;0.93;;;0.55;;
60060;SDS011;45933;51.336;12.612;2023-10-08T04:11:31;1.63;;;0.70;;
60060;SDS011;45933;51.336;12.612;2023-10-08T04:14:26;1.58;;;0.55;;
60060;SDS011;45933;51.336;12.612;2023-10-08T04:16:53;4.85;;;1.20;;
60060;SDS011;45933;51.336;12.612;2023-10-08T04:19:19;3.30;;;0.80;;
60060;SDS011;45933;51.336;12.612;2023-10-08T04:21:46;2.83;;;0.80;;
60060;SDS011;45933;51.336;12.612;2023-10-08T04:24:18;3.25;;;0.90;;
60060;SDS011;45933;51.336;12.612;2023-10-08T04:26:45;2.22;;;0.73;;
60060;SDS011;45933;51.336;12.612;2023-10-08T04:29:11;3.35;;;0.80;;
60060;SDS011;45933;51.336;12.612;2023-10-08T04:31:41;2.85;;;0.80;;
60060;SDS011;45933;51.336;12.612;2023-10-08T04:34:08;1.52;;;0.60;;
60060;SDS011;45933;51.336;12.612;2023-10-08T04:36:47;2.60;;;0.85;;
60060;SDS011;45933;51.336;12.612;2023-10-08T04:39:20;1.75;;;0.65;;
60060;SDS011;45933;51.336;12.612;2023-10-08T04:41:48;2.90;;;1.15;;
60060;SDS011;45933;51.336;12.612;2023-10-08T04:44:17;2.15;;;0.82;;
60060;SDS011;45933;51.336;12.612;2023-10-08T04:46:43;3.40;;;1.10;;
60060;SDS011;45933;51.336;12.612;2023-10-08T04:49:14;3.17;;;1.08;;
60060;SDS011;45933;51.336;12.612;2023-10-08T04:51:59;3.78;;;0.88;;
60060;SDS011;45933;51.336;12.612;2023-10-08T04:54:26;3.75;;;1.20;;
60060;SDS011;45933;51.336;12.612;2023-10-08T04:57:01;3.65;;;1.00;;
60060;SDS011;45933;51.336;12.612;2023-10-08T04:59:29;3.47;;;1.02;;
60060;SDS011;45933;51.336;12.612;2023-10-08T05:02:02;4.30;;;1.10;;
60060;SDS011;45933;51.336;12.612;2023-10-08T05:04:44;3.47;;;0.95;;
60060;SDS011;45933;51.336;12.612;2023-10-08T05:07:28;1.17;;;0.75;;
60060;SDS011;45933;51.336;12.612;2023-10-08T05:10:25;2.28;;;0.88;;
60060;SDS011;45933;51.336;12.612;2023-10-08T05:12:51;2.78;;;0.85;;
60060;SDS011;45933;51.336;12.612;2023-10-08T05:15:40;2.17;;;0.82;;
60060;SDS011;45933;51.336;12.612;2023-10-08T05:18:27;0.95;;;0.50;;
60060;SDS011;45933;51.336;12.612;2023-10-08T05:21:13;1.40;;;0.70;;
60060;SDS011;45933;51.336;12.612;2023-10-08T05:23:51;2.45;;;1.00;;
60060;SDS011;45933;51.336;12.612;2023-10-08T05:26:34;1.55;;;0.80;;
60060;SDS011;45933;51.336;12.612;2023-10-08T05:29:07;4.97;;;2.53;;
60060;SDS011;45933;51.336;12.612;2023-10-08T05:31:52;2.75;;;1.60;;
60060;SDS011;45933;51.336;12.612;2023-10-08T05:34:37;0.98;;;0.55;;
60060;SDS011;45933;51.336;12.612;2023-10-08T05:37:15;2.25;;;1.13;;
60060;SDS011;45933;51.336;12.612;2023-10-08T05:39:56;2.35;;;1.33;;
60060;SDS011;45933;51.336;12.612;2023-10-08T05:42:35;1.63;;;1.02;;
60060;SDS011;45933;51.336;12.612;2023-10-08T05:45:10;1.40;;;0.70;;
60060;SDS011;45933;51.336;12.612;2023-10-08T05:47:36;1.90;;;0.93;;
60060;SDS011;45933;51.336;12.612;2023-10-08T05:50:03;1.70;;;1.08;;
60060;SDS011;45933;51.336;12.612;2023-10-08T05:52:45;1.98;;;1.08;;
60060;SDS011;45933;51.336;12.612;2023-10-08T05:55:23;1.08;;;0.65;;
60060;SDS011;45933;51.336;12.612;2023-10-08T06:00:49;2.13;;;0.65;;
60060;SDS011;45933;51.336;12.612;2023-10-08T06:03:19;1.23;;;0.50;;
60060;SDS011;45933;51.336;12.612;2023-10-08T06:06:00;1.00;;;0.50;;
60060;SDS011;45933;51.336;12.612;2023-10-08T06:08:48;0.70;;;0.60;;
60060;SDS011;45933;51.336;12.612;2023-10-08T06:11:35;0.90;;;0.50;;
60060;SDS011;45933;51.336;12.612;2023-10-08T06:14:30;2.45;;;0.80;;
60060;SDS011;45933;51.336;12.612;2023-10-08T06:17:14;1.35;;;0.73;;
60060;SDS011;45933;51.336;12.612;2023-10-08T06:19:58;1.17;;;0.75;;
60060;SDS011;45933;51.336;12.612;2023-10-08T06:22:24;1.55;;;0.70;;
60060;SDS011;45933;51.336;12.612;2023-10-08T06:24:51;1.83;;;0.80;;
60060;SDS011;45933;51.336;12.612;2023-10-08T06:27:36;1.15;;;0.40;;
60060;SDS011;45933;51.336;12.612;2023-10-08T06:30:02;1.40;;;0.70;;
60060;SDS011;45933;51.336;12.612;2023-10-08T06:32:29;1.45;;;0.65;;
60060;SDS011;45933;51.336;12.612;2023-10-08T06:34:55;2.25;;;1.13;;
60060;SDS011;45933;51.336;12.612;2023-10-08T06:37:21;1.13;;;0.65;;
60060;SDS011;45933;51.336;12.612;2023-10-08T06:39:46;1.52;;;0.65;;
60060;SDS011;45933;51.336;12.612;2023-10-08T06:42:12;1.77;;;0.70;;
60060;SDS011;45933;51.336;12.612;2023-10-08T06:44:41;1.60;;;0.80;;
60060;SDS011;45933;51.336;12.612;2023-10-08T06:47:09;1.30;;;0.75;;
60060;SDS011;45933;51.336;12.612;2023-10-08T06:49:35;3.40;;;0.80;;
60060;SDS011;45933;51.336;12.612;2023-10-08T06:52:01;1.52;;;0.70;;
60060;SDS011;45933;51.336;12.612;2023-10-08T06:54:26;2.00;;;0.82;;
60060;SDS011;45933;51.336;12.612;2023-10-08T06:56:55;0.90;;;0.50;;
60060;SDS011;45933;51.336;12.612;2023-10-08T06:59:21;4.40;;;0.90;;
60060;SDS011;45933;51.336;12.612;2023-10-08T07:01:50;2.33;;;0.80;;
60060;SDS011;45933;51.336;12.612;2023-10-08T07:04:16;2.50;;;0.90;;
60060;SDS011;45933;51.336;12.612;2023-10-08T07:06:44;2.83;;;0.80;;
60060;SDS011;45933;51.336;12.612;2023-10-08T07:09:11;2.72;;;0.82;;
60060;SDS011;45933;51.336;12.612;2023-10-08T07:11:52;1.58;;;0.60;;
60060;SDS011;45933;51.336;12.612;2023-10-08T07:14:20;1.55;;;0.77;;
60060;SDS011;45933;51.336;12.612;2023-10-08T07:16:56;3.55;;;1.05;;
60060;SDS011;45933;51.336;12.612;2023-10-08T07:19:26;2.95;;;0.88;;
60060;SDS011;45933;51.336;12.612;2023-10-08T07:22:02;2.95;;;1.20;;
60060;SDS011;45933;51.336;12.612;2023-10-08T07:24:30;5.10;;;1.00;;
60060;SDS011;45933;51.336;12.612;2023-10-08T07:26:59;1.55;;;1.00;;
60060;SDS011;45933;51.336;12.612;2023-10-08T07:29:27;3.78;;;1.10;;
60060;SDS011;45933;51.336;12.612;2023-10-08T07:31:53;2.80;;;1.00;;
60060;SDS011;45933;51.336;12.612;2023-10-08T07:34:19;2.50;;;1.10;;
60060;SDS011;45933;51.336;12.612;2023-10-08T07:36:51;4.10;;;1.13;;
60060;SDS011;45933;51.336;12.612;2023-10-08T07:39:18;4.55;;;1.27;;
60060;SDS011;45933;51.336;12.612;2023-10-08T07:41:57;2.97;;;1.20;;
60060;SDS011;45933;51.336;12.612;2023-10-08T07:44:24;4.47;;;1.23;;
60060;SDS011;45933;51.336;12.612;2023-10-08T07:46:50;4.18;;;1.38;;
60060;SDS011;45933;51.336;12.612;2023-10-08T07:49:19;4.63;;;1.10;;
60060;SDS011;45933;51.336;12.612;2023-10-08T07:51:45;5.13;;;1.30;;
60060;SDS011;45933;51.336;12.612;2023-10-08T07:54:17;5.00;;;1.67;;
60060;SDS011;45933;51.336;12.612;2023-10-08T07:56:44;8.35;;;1.23;;
60060;SDS011;45933;51.336;12.612;2023-10-08T07:59:10;5.35;;;1.73;;
60060;SDS011;45933;51.336;12.612;2023-10-08T08:01:39;5.07;;;1.55;;
60060;SDS011;45933;51.336;12.612;2023-10-08T08:04:07;4.13;;;1.42;;
60060;SDS011;45933;51.336;12.612;2023-10-08T08:06:35;5.00;;;1.35;;
60060;SDS011;45933;51.336;12.612;2023-10-08T08:09:02;7.32;;;1.65;;
60060;SDS011;45933;51.336;12.612;2023-10-08T08:11:33;6.65;;;1.60;;
60060;SDS011;45933;51.336;12.612;2023-10-08T08:14:01;4.47;;;1.30;;
60060;SDS011;45933;51.336;12.612;2023-10-08T08:16:32;3.83;;;1.30;;
60060;SDS011;45933;51.336;12.612;2023-10-08T08:19:01;3.70;;;1.33;;
60060;SDS011;45933;51.336;12.612;2023-10-08T08:21:26;7.90;;;1.80;;
60060;SDS011;45933;51.336;12.612;2023-10-08T08:23:55;5.82;;;1.67;;
60060;SDS011;45933;51.336;12.612;2023-10-08T08:26:29;4.18;;;1.52;;
60060;SDS011;45933;51.336;12.612;2023-10-08T08:29:04;3.33;;;1.40;;
60060;SDS011;45933;51.336;12.612;2023-10-08T08:31:34;5.85;;;1.80;;
60060;SDS011;45933;51.336;12.612;2023-10-08T08:34:02;7.35;;;2.55;;
60060;SDS011;45933;51.336;12.612;2023-10-08T08:36:33;7.78;;;3.58;;
60060;SDS011;45933;51.336;12.612;2023-10-08T08:38:59;7.78;;;3.45;;
60060;SDS011;45933;51.336;12.612;2023-10-08T08:41:24;8.23;;;2.53;;
60060;SDS011;45933;51.336;12.612;2023-10-08T08:43:50;6.63;;;2.58;;
60060;SDS011;45933;51.336;12.612;2023-10-08T08:46:32;4.10;;;1.73;;
60060;SDS011;45933;51.336;12.612;2023-10-08T08:49:00;6.82;;;1.90;;
60060;SDS011;45933;51.336;12.612;2023-10-08T08:51:29;5.03;;;1.73;;
60060;SDS011;45933;51.336;12.612;2023-10-08T08:53:55;4.38;;;1.58;;
60060;SDS011;45933;51.336;12.612;2023-10-08T08:56:20;4.68;;;1.80;;
60060;SDS011;45933;51.336;12.612;2023-10-08T08:58:47;4.85;;;1.67;;
60060;SDS011;45933;51.336;12.612;2023-10-08T09:01:14;4.60;;;1.48;;
60060;SDS011;45933;51.336;12.612;2023-10-08T09:03:40;5.68;;;1.70;;
60060;SDS011;45933;51.336;12.612;2023-10-08T09:06:06;5.72;;;1.80;;
60060;SDS011;45933;51.336;12.612;2023-10-08T09:08:35;4.53;;;1.60;;
60060;SDS011;45933;51.336;12.612;2023-10-08T09:11:02;5.60;;;1.58;;
60060;SDS011;45933;51.336;12.612;2023-10-08T09:13:29;4.07;;;1.50;;
60060;SDS011;45933;51.336;12.612;2023-10-08T09:15:57;3.67;;;1.40;;
60060;SDS011;45933;51.336;12.612;2023-10-08T09:18:28;6.47;;;2.20;;
60060;SDS011;45933;51.336;12.612;2023-10-08T09:20:54;6.10;;;1.70;;
60060;SDS011;45933;51.336;12.612;2023-10-08T09:23:20;3.80;;;1.63;;
60060;SDS011;45933;51.336;12.612;2023-10-08T09:25:49;5.90;;;1.77;;
60060;SDS011;45933;51.336;12.612;2023-10-08T09:28:15;4.28;;;1.75;;
60060;SDS011;45933;51.336;12.612;2023-10-08T09:30:41;4.93;;;1.63;;
60060;SDS011;45933;51.336;12.612;2023-10-08T09:33:11;4.45;;;1.55;;
60060;SDS011;45933;51.336;12.612;2023-10-08T09:35:41;4.47;;;1.63;;
60060;SDS011;45933;51.336;12.612;2023-10-08T09:38:08;5.28;;;1.70;;
60060;SDS011;45933;51.336;12.612;2023-10-08T09:40:35;5.32;;;1.92;;
60060;SDS011;45933;51.336;12.612;2023-10-08T09:43:02;6.35;;;1.70;;
60060;SDS011;45933;51.336;12.612;2023-10-08T09:45:29;6.70;;;2.15;;
60060;SDS011;45933;51.336;12.612;2023-10-08T09:47:55;7.40;;;1.52;;
60060;SDS011;45933;51.336;12.612;2023-10-08T09:50:29;5.82;;;2.20;;
60060;SDS011;45933;51.336;12.612;2023-10-08T09:55:46;5.35;;;1.80;;
60060;SDS011;45933;51.336;12.612;2023-10-08T09:58:25;5.47;;;1.85;;
60060;SDS011;45933;51.336;12.612;2023-10-08T10:00:53;4.57;;;1.73;;
60060;SDS011;45933;51.336;12.612;2023-10-08T10:03:21;4.72;;;2.10;;
60060;SDS011;45933;51.336;12.612;2023-10-08T10:05:50;5.55;;;1.67;;
60060;SDS011;45933;51.336;12.612;2023-10-08T10:08:15;3.55;;;1.58;;
60060;SDS011;45933;51.336;12.612;2023-10-08T10:10:41;5.07;;;1.90;;
60060;SDS011;45933;51.336;12.612;2023-10-08T10:13:12;10.60;;;2.28;;
60060;SDS011;45933;51.336;12.612;2023-10-08T10:15:39;5.53;;;1.98;;
60060;SDS011;45933;51.336;12.612;2023-10-08T10:18:16;5.53;;;2.03;;
60060;SDS011;45933;51.336;12.612;2023-10-08T10:20:56;5.50;;;2.10;;
60060;SDS011;45933;51.336;12.612;2023-10-08T10:23:41;6.18;;;2.28;;
60060;SDS011;45933;51.336;12.612;2023-10-08T10:31:32;5.65;;;1.98;;
60060;SDS011;45933;51.336;12.612;2023-10-08T10:34:03;4.10;;;2.10;;
60060;SDS011;45933;51.336;12.612;2023-10-08T10:36:29;8.60;;;1.85;;
60060;SDS011;45933;51.336;12.612;2023-10-08T10:38:56;7.15;;;2.15;;
60060;SDS011;45933;51.336;12.612;2023-10-08T10:41:22;4.78;;;2.20;;
60060;SDS011;45933;51.336;12.612;2023-10-08T10:43:47;4.38;;;2.00;;
60060;SDS011;45933;51.336;12.612;2023-10-08T10:46:17;6.03;;;2.10;;
60060;SDS011;45933;51.336;12.612;2023-10-08T10:48:56;5.40;;;2.20;;
60060;SDS011;45933;51.336;12.612;2023-10-08T10:51:42;6.15;;;1.88;;
60060;SDS011;45933;51.336;12.612;2023-10-08T10:54:07;8.75;;;2.55;;
60060;SDS011;45933;51.336;12.612;2023-10-08T10:56:33;4.25;;;2.00;;
60060;SDS011;45933;51.336;12.612;2023-10-08T10:59:07;6.70;;;2.00;;
60060;SDS011;45933;51.336;12.612;2023-10-08T11:01:48;8.25;;;2.72;;
60060;SDS011;45933;51.336;12.612;2023-10-08T11:04:34;4.88;;;2.00;;
60060;SDS011;45933;51.336;12.612;2023-10-08T11:07:18;7.90;;;2.47;;
60060;SDS011;45933;51.336;12.612;2023-10-08T11:09:49;5.40;;;2.60;;
60060;SDS011;45933;51.336;12.612;2023-10-08T11:12:17;5.15;;;2.30;;
60060;SDS011;45933;51.336;12.612;2023-10-08T11:14:47;4.32;;;2.20;;
60060;SDS011;45933;51.336;12.612;2023-10-08T11:17:17;6.07;;;2.58;;
60060;SDS011;45933;51.336;12.612;2023-10-08T11:19:47;5.78;;;1.90;;
60060;SDS011;45933;51.336;12.612;2023-10-08T11:22:13;6.00;;;1.90;;
60060;SDS011;45933;51.336;12.612;2023-10-08T11:24:43;7.15;;;2.50;;
60060;SDS011;45933;51.336;12.612;2023-10-08T11:27:19;6.25;;;2.10;;
60060;SDS011;45933;51.336;12.612;2023-10-08T11:29:54;9.63;;;2.72;;
60060;SDS011;45933;51.336;12.612;2023-10-08T11:32:24;3.75;;;2.20;;
60060;SDS011;45933;51.336;12.612;2023-10-08T11:34:58;6.30;;;2.33;;
60060;SDS011;45933;51.336;12.612;2023-10-08T11:37:28;5.72;;;2.50;;
60060;SDS011;45933;51.336;12.612;2023-10-08T11:39:55;3.78;;;1.92;;
60060;SDS011;45933;51.336;12.612;2023-10-08T11:42:26;4.93;;;2.05;;
60060;SDS011;45933;51.336;12.612;2023-10-08T11:44:58;5.90;;;2.38;;
60060;SDS011;45933;51.336;12.612;2023-10-08T11:47:42;5.78;;;2.20;;
60060;SDS011;45933;51.336;12.612;2023-10-08T11:50:09;5.97;;;2.00;;
60060;SDS011;45933;51.336;12.612;2023-10-08T11:52:35;5.60;;;2.05;;
60060;SDS011;45933;51.336;12.612;2023-10-08T11:55:10;5.20;;;2.10;;
60060;SDS011;45933;51.336;12.612;2023-10-08T11:57:44;3.75;;;2.20;;
60060;SDS011;45933;51.336;12.612;2023-10-08T12:00:12;4.50;;;2.20;;
60060;SDS011;45933;51.336;12.612;2023-10-08T12:02:50;3.83;;;2.15;;
60060;SDS011;45933;51.336;12.612;2023-10-08T12:05:19;6.53;;;2.63;;
60060;SDS011;45933;51.336;12.612;2023-10-08T12:07:52;3.55;;;2.00;;
60060;SDS011;45933;51.336;12.612;2023-10-08T12:10:18;5.35;;;2.70;;
60060;SDS011;45933;51.336;12.612;2023-10-08T12:12:50;5.95;;;2.45;;
60060;SDS011;45933;51.336;12.612;2023-10-08T12:15:25;2.88;;;2.10;;
60060;SDS011;45933;51.336;12.612;2023-10-08T12:17:59;6.35;;;2.67;;
60060;SDS011;45933;51.336;12.612;2023-10-08T12:20:36;5.30;;;1.88;;
60060;SDS011;45933;51.336;12.612;2023-10-08T12:23:06;4.78;;;2.20;;
60060;SDS011;45933;51.336;12.612;2023-10-08T12:25:32;6.88;;;2.20;;
60060;SDS011;45933;51.336;12.612;2023-10-08T12:28:00;6.32;;;2.30;;
60060;SDS011;45933;51.336;12.612;2023-10-08T12:30:30;5.03;;;2.20;;
60060;SDS011;45933;51.336;12.612;2023-10-08T12:32:56;4.72;;;2.30;;
60060;SDS011;45933;51.336;12.612;2023-10-08T12:35:23;4.35;;;1.90;;
60060;SDS011;45933;51.336;12.612;2023-10-08T12:37:49;7.95;;;2.67;;
60060;SDS011;45933;51.336;12.612;2023-10-08T12:40:15;6.72;;;2.17;;
60060;SDS011;45933;51.336;12.612;2023-10-08T12:42:52;5.95;;;2.28;;
60060;SDS011;45933;51.336;12.612;2023-10-08T12:45:18;6.63;;;2.60;;
60060;SDS011;45933;51.336;12.612;2023-10-08T12:47:49;5.28;;;2.47;;
60060;SDS011;45933;51.336;12.612;2023-10-08T12:50:17;5.60;;;2.58;;
60060;SDS011;45933;51.336;12.612;2023-10-08T12:52:49;4.68;;;2.50;;
60060;SDS011;45933;51.336;12.612;2023-10-08T12:55:23;6.90;;;2.78;;
60060;SDS011;45933;51.336;12.612;2023-10-08T12:57:52;7.78;;;3.05;;
60060;SDS011;45933;51.336;12.612;2023-10-08T13:00:24;4.75;;;2.50;;
60060;SDS011;45933;51.336;12.612;2023-10-08T13:02:51;5.38;;;2.08;;
60060;SDS011;45933;51.336;12.612;2023-10-08T13:05:20;5.55;;;2.30;;
60060;SDS011;45933;51.336;12.612;2023-10-08T13:07:52;5.35;;;2.28;;
60060;SDS011;45933;51.336;12.612;2023-10-08T13:10:19;4.05;;;1.80;;
60060;SDS011;45933;51.336;12.612;2023-10-08T13:12:46;3.47;;;2.15;;
60060;SDS011;45933;51.336;12.612;2023-10-08T13:15:12;6.05;;;2.17;;
60060;SDS011;45933;51.336;12.612;2023-10-08T13:17:38;5.03;;;2.25;;
60060;SDS011;45933;51.336;12.612;2023-10-08T13:20:07;4.75;;;2.10;;
60060;SDS011;45933;51.336;12.612;2023-10-08T13:22:42;5.15;;;2.47;;
60060;SDS011;45933;51.336;12.612;2023-10-08T13:25:08;3.88;;;1.73;;
60060;SDS011;45933;51.336;12.612;2023-10-08T13:27:34;5.75;;;2.40;;
60060;SDS011;45933;51.336;12.612;2023-10-08T13:30:04;3.63;;;1.98;;
60060;SDS011;45933;51.336;12.612;2023-10-08T13:32:33;3.65;;;1.63;;
60060;SDS011;45933;51.336;12.612;2023-10-08T13:35:00;6.32;;;2.10;;
60060;SDS011;45933;51.336;12.612;2023-10-08T13:37:26;3.97;;;2.10;;
60060;SDS011;45933;51.336;12.612;2023-10-08T13:39:51;5.15;;;2.03;;
60060;SDS011;45933;51.336;12.612;2023-10-08T13:42:18;4.57;;;2.20;;
60060;SDS011;45933;51.336;12.612;2023-10-08T13:44:45;7.47;;;2.65;;
60060;SDS011;45933;51.336;12.612;2023-10-08T13:47:11;5.85;;;2.30;;
60060;SDS011;45933;51.336;12.612;2023-10-08T13:49:40;3.55;;;2.00;;
60060;SDS011;45933;51.336;12.612;2023-10-08T13:52:06;7.50;;;2.38;;
60060;SDS011;45933;51.336;12.612;2023-10-08T13:54:32;4.38;;;2.10;;
60060;SDS011;45933;51.336;12.612;2023-10-08T13:57:00;6.13;;;2.42;;
60060;SDS011;45933;51.336;12.612;2023-10-08T13:59:26;4.25;;;2.40;;
60060;SDS011;45933;51.336;12.612;2023-10-08T14:01:56;4.90;;;2.00;;
60060;SDS011;45933;51.336;12.612;2023-10-08T14:04:21;5.47;;;2.35;;
60060;SDS011;45933;51.336;12.612;2023-10-08T14:06:55;2.63;;;1.75;;
60060;SDS011;45933;51.336;12.612;2023-10-08T14:09:23;3.47;;;1.83;;
60060;SDS011;45933;51.336;12.612;2023-10-08T14:12:01;5.63;;;1.98;;
60060;SDS011;45933;51.336;12.612;2023-10-08T14:14:27;4.70;;;2.10;;
60060;SDS011;45933;51.336;12.612;2023-10-08T14:16:55;5.50;;;2.22;;
60060;SDS011;45933;51.336;12.612;2023-10-08T14:19:24;3.05;;;1.70;;
60060;SDS011;45933;51.336;12.612;2023-10-08T14:22:01;4.13;;;2.10;;
60060;SDS011;45933;51.336;12.612;2023-10-08T14:24:29;3.97;;;2.22;;
60060;SDS011;45933;51.336;12.612;2023-10-08T14:26:58;4.90;;;2.22;;
60060;SDS011;45933;51.336;12.612;2023-10-08T14:29:28;3.33;;;2.10;;
60060;SDS011;45933;51.336;12.612;2023-10-08T14:31:54;6.00;;;2.80;;
60060;SDS011;45933;51.336;12.612;2023-10-08T14:34:21;7.20;;;4.25;;
60060;SDS011;45933;51.336;12.612;2023-10-08T14:37:07;6.68;;;3.08;;
60060;SDS011;45933;51.336;12.612;2023-10-08T14:39:51;5.07;;;2.88;;
60060;SDS011;45933;51.336;12.612;2023-10-08T14:42:35;5.85;;;2.80;;
60060;SDS011;45933;51.336;12.612;2023-10-08T14:45:19;5.53;;;2.30;;
60060;SDS011;45933;51.336;12.612;2023-10-08T14:47:44;4.75;;;2.20;;
60060;SDS011;45933;51.336;12.612;2023-10-08T14:50:10;6.38;;;2.28;;
60060;SDS011;45933;51.336;12.612;2023-10-08T14:52:44;8.10;;;2.35;;
60060;SDS011;45933;51.336;12.612;2023-10-08T14:55:09;4.32;;;2.35;;
60060;SDS011;45933;51.336;12.612;2023-10-08T14:57:37;5.68;;;2.03;;
60060;SDS011;45933;51.336;12.612;2023-10-08T15:00:03;5.85;;;2.03;;
60060;SDS011;45933;51.336;12.612;2023-10-08T15:02:30;3.97;;;2.20;;
60060;SDS011;45933;51.336;12.612;2023-10-08T15:04:55;4.13;;;2.00;;